Logo AVAMET
Benvolgut visitant, si us plau, ingressa Recuperar contrasenya
AVAMET paisatges

Borriana Platja del Grau

Dades diàries. Acumulats / Últims 30 dies disponibles

Data Temperatura (°C) Humitat rel. (%) Pressió rel. (hPa) Vent (km/h) Precipitació
Mínima Mitjana Màxima Amplitud
tèrmica
Mínima Mitjana Màxima Mínima Mitjana Màxima Predom. Mitjana Ràfega
màxima
Total
(mm)
Índex-n
Mínima Mitjana Màxima Mínima Mitjana Màxima n
0 a 1
P0 max
mm 5'
Dades mensuals acumulades fins l'últim dia disponible
07/2020 20,7 21,7 23,9 24,5 25,3 26,6 27,4 6,7 63 82 93 1.013 1.019 1.025   12,6 42,6 0,6
Dades anuals acumulades fins l'últim dia disponible
2020 3,6 12,8 23,9 16,2 10,9 19,1 30,4 26,8 28 79 98 999 1.022 1.038   12,5 96,5 330,2
Últims 30 dies disponibles
13-07-2020 21,6     24,5     26,2 4,6 76 84 92 1.020 1.021 1.022 SSE 10,8 38,9 0,0
12-07-2020 21,3     23,7     26,2 4,9 72 85 91 1.019 1.021 1.023 SSO 10,5 38,9 0,6
11-07-2020 22,2     24,6     26,8 4,6 66 83 93 1.017 1.020 1.022 SSE 13,9 37,0 0,0
10-07-2020 20,8     24,8     27,4 6,6 68 82 89 1.016 1.018 1.019 SE 14,3 37,0 0,0
09-07-2020 22,4     25,0     27,2 4,8 77 84 91 1.017 1.019 1.020 S 10,8 42,6 0,0
08-07-2020 21,6     24,6     26,7 5,1 71 84 91 1.017 1.019 1.022 S 13,3 42,6 0,0
07-07-2020 21,8     24,3     25,3 3,5 68 78 87 1.017 1.018 1.019 SSE 15,5 38,9 0,0
06-07-2020 21,6     25,1     27,1 5,5 68 79 86 1.017 1.019 1.021 SSE 8,8 31,5 0,0
05-07-2020 20,9     24,0     25,9 5,0 70 82 90 1.020 1.022 1.025 S 11,3 33,3 0,0
04-07-2020 20,8     23,9     26,1 5,3 75 84 91 1.023 1.023 1.025 S 11,8 35,2 0,0
03-07-2020 23,9     24,7     25,6 1,7 63 76 89 1.018 1.021 1.023 S 14,5 35,4 0,0
02-07-2020 22,8     25,1     27,4 4,6 76 86 93 1.014 1.016 1.018 S 15,6 35,4 0,0
01-07-2020 20,7     24,6     27,3 6,6 72 85 91 1.013 1.014 1.015 S 12,5 29,6 0,0
30-06-2020 21,4     24,2     26,1 4,7 79 86 92 1.014 1.017 1.019 S 11,8 29,6 0,0
29-06-2020 20,6     24,0     26,3 5,7 83 87 91 1.018 1.019 1.020 SSE 10,9 29,6 0,0
28-06-2020 20,6     24,0     25,6 5,0 75 82 87 1.019 1.020 1.021 SSE 10,0 25,9 0,0
27-06-2020 20,5     24,1     27,0 6,5 66 78 84 1.016 1.017 1.019 S 10,5 22,5 0,0
26-06-2020 19,9     23,9     26,8 6,9 61 72 82 1.015 1.017 1.019 S 11,7 25,9 0,0
25-06-2020 20,9     23,9     26,7 5,8 66 76 86 1.017 1.019 1.021 SSE 8,5 31,5 0,0
24-06-2020 19,4     23,0     24,9 5,5 74 82 86 1.018 1.020 1.021 S 9,1 40,7 0,0
23-06-2020 19,6     22,9     24,9 5,3 77 82 87 1.020 1.021 1.023 S 13,7 40,7 0,0
22-06-2020 21,8     23,5     25,1 3,3 70 83 94 1.022 1.024 1.025 SE 12,7 31,5 0,0
21-06-2020 18,8     22,2     24,1 5,3 83 89 95 1.022 1.024 1.025 S 7,7 25,9 0,0
20-06-2020 18,1     22,3     23,7 5,6 87 88 89 1.023 1.023 1.024 ENE 3,0 27,8 0,0
16-06-2020 18,4     20,5     22,9 4,5 75 83 91 1.019 1.020 1.021 SSO 17,3 50,0 0,8
15-06-2020 17,7     20,9     22,7 5,0 68 82 91 1.021 1.022 1.023 SSE 11,2 32,2 0,0
14-06-2020 17,2     20,3     22,8 5,6 62 78 88 1.019 1.020 1.021 SSE 14,0 31,5 0,0
13-06-2020 18,5     21,4     23,9 5,4 42 60 86 1.011 1.014 1.019 SSO 17,5 56,3 0,0
12-06-2020 20,2     24,1     27,9 7,7 32 46 89 1.004 1.006 1.010 SSO 19,6 66,6 0,0
11-06-2020 18,1     21,1     24,7 6,6 68 81 87 1.003 1.009 1.017 SSO 23,9 66,6 0,0
Últims 13 mesos disponibles
06/2020 14,1 18,2 21,8 21,7 19,9 24,1 27,9 13,8 46 78 89 1.006 1.017 1.024 S 12,4 68,5 25,8
05/2020 12,4 16,2 19,6 19,7 18,5 22,7 30,4 18,0 56 79 89 1.007 1.019 1.030 S 11,9 68,5 22,8
04/2020 7,9 12,3 17,7 15,1 13,7 17,9 27,6 19,7 55 83 93 1.008 1.019 1.029 S 11,6 72,4 120,6
03/2020 5,7 10,0 14,3 13,3 10,9 16,2 24,5 18,8 49 77 95 1.008 1.020 1.029 SSO 14,4 94,9 91,4
02/2020 6,1 9,7 13,6 13,4 13,4 17,0 24,4 18,3 56 78 92 1.015 1.028 1.036 SO 10,5 68,5 0,0
01/2020 3,6 7,2 12,7 10,7 10,9 14,3 18,9 15,3 67 80 94 1.020 1.028 1.035 SO 13,8 96,5 69,0
12/2019 5,4 10,1 17,2 13,3 12,7 16,9 25,3 19,9 52 75 94 1.004 1.022 1.036 SO 13,4 79,6 68,0
11/2019 6,8 12,0 19,2 15,6 13,9 19,3 27,4 20,6 45 61 82 1.000 1.013 1.020 SO 13,3 80,4 2,2
10/2019 10,3 15,7 20,0 19,3 15,3 22,7 27,4 17,1 59 76 88 1.009 1.019 1.024 ESE 13,1 68,5 14,8
09/2019 14,5 19,6 22,4 22,7 24,0 25,7 30,8 16,3 58 79 88 1.012 1.020 1.028 ESE 14,7 93,3 61,0
08/2019 17,2 21,5 24,2 24,8 25,5 27,4 30,1 12,9 62 80 89 1.013 1.018 1.023 S 11,3 93,3 16,8
07/2019 20,4 21,8 23,4 25,1 26,1 27,4 29,4 9,0 61 77 87 1.008 1.017 1.024 S 12,4 64,8 15,4
06/2019 11,5 17,9 22,3 21,0 19,0 23,4 28,5 17,0 62 76 88 1.010 1.019 1.025 S 12,6 69,2 0,0
Tots els anys disponibles
2019 3,7 14,0 24,2 17,4 8,7 20,6 30,8 27,1 31 73 96 996 1.020 1.037 SSO 13,5 111,0 219,2
2018 1,3 14,3 27,1 17,6 7,7 20,7 32,4 31,1 33 74 96 995 1.018 1.038 SO 13,1 88,8 454,6
Temperatura (°C)
Humitat relativa (%)
Velocitat del vent i ràfega màxima (km/h)
Direcció del vent (°)
Pressió (hPa)
Precipitació (mm)
Nota sobre les dades: s'avisa a l'usuari de la provisionalitat i no oficialitat d'aquestes dades
Logo AVAMET blanc
Web allotjada a Sollutia
Llicència de Creative CommonsLa web d'AVAMET i els seus continguts estan subjectes a una llicència de
Reconeixement - No Comercial - Compartir igual
Últimes estacions: Vilamarxant - La Pedrera (Soci), Càlig (Ajuntament Soci), Quesa - Hotel La Rocha (Soci), Agres - Les Eres (Soci), la Vilavella - Ptda Forns (Soci), Miramar - Platja (Inforatge), San Fulgencio - Centre & San Fulgencio - Urb. La Marina (MeteOrihuela), Ontinyent - els Gínjols (Soci), Orba (Aj. Soci) - - -